Time;durP1;ratioP1;P1;durP2;ratioP2;P2;SDS_P1;SDS_P2;PMS_P1;PMS_P2;Temp;Humidity;BMP_temperature;BMP_pressure;BME280_temperature;BME280_humidity;BME280_pressure;Samples;Min_cycle;Max_cycle;Signal;HPM_P1;HPM_P2
2023/04/11 07:44:32;;;;;;;12.33;2.13;;;7.50;99.90;;;;;;5007513;28;20065;-81
2023/04/11 10:18:34;;;;;;;7.63;1.33;;;8.10;99.90;;;;;;5002523;28;20076;-89
2023/04/11 10:22:42;;;;;;;4.53;1.00;;;7.90;99.90;;;;;;4964657;28;20375;-86
2023/04/11 10:25:21;;;;;;;3.40;0.75;;;7.50;99.90;;;;;;4947926;28;20051;-86
2023/04/11 10:27:59;;;;;;;4.10;0.45;;;9.00;99.90;;;;;;4913924;29;20055;-82
2023/04/11 10:30:40;;;;;;;5.03;0.82;;;6.40;99.90;;;;;;4947504;28;20089;-83
2023/04/11 10:33:09;;;;;;;8.80;0.77;;;8.70;99.90;;;;;;4943799;28;20055;-88
2023/04/11 10:35:35;;;;;;;5.65;1.40;;;5.60;99.90;;;;;;4943699;28;20051;-83
2023/04/11 10:38:00;;;;;;;7.85;0.70;;;8.20;99.90;;;;;;4964277;28;20077;-83
2023/04/11 10:40:26;;;;;;;6.03;0.82;;;5.30;99.90;;;;;;4962407;28;20510;-84
2023/04/11 10:42:52;;;;;;;5.40;0.63;;;5.50;99.90;;;;;;4949235;28;20097;-83
2023/04/11 10:45:28;;;;;;;7.13;0.80;;;5.60;99.90;;;;;;4949575;28;20066;-82
2023/04/11 10:48:06;;;;;;;7.75;0.98;;;5.70;99.90;;;;;;4948545;28;20046;-82
2023/04/11 10:50:36;;;;;;;5.80;0.90;;;5.80;99.90;;;;;;4964328;28;20122;-84
2023/04/11 10:53:03;;;;;;;4.68;1.05;;;8.10;99.90;;;;;;4933167;28;20141;-83
2023/04/11 10:55:41;;;;;;;10.30;1.90;;;7.70;99.90;;;;;;4951414;28;20130;-86
2023/04/11 10:58:15;;;;;;;5.20;1.10;;;5.80;99.90;;;;;;4951899;28;20091;-84
2023/04/11 11:00:50;;;;;;;5.97;1.10;;;8.70;99.90;;;;;;4942316;28;20142;-86
2023/04/11 11:03:18;;;;;;;;;;;8.70;99.90;;;;;;4931786;28;20514;-88
2023/04/11 11:06:08;;;;;;;1.45;0.22;;;5.80;99.90;;;;;;4950389;29;19982;-86
2023/04/11 11:08:36;;;;;;;6.50;0.73;;;5.90;99.90;;;;;;4931864;28;20134;-87
2023/04/11 11:11:07;;;;;;;5.10;0.80;;;5.90;99.90;;;;;;4944645;28;20051;-87
2023/04/11 11:13:44;;;;;;;4.10;0.98;;;6.00;99.90;;;;;;4993689;28;20053;-87
2023/04/11 11:16:28;;;;;;;7.10;0.93;;;5.50;99.90;;;;;;4974070;28;20201;-86
2023/04/11 11:18:57;;;;;;;10.33;1.07;;;5.80;99.90;;;;;;4978601;28;20409;-86
2023/04/11 11:21:26;;;;;;;11.55;0.90;;;5.80;99.90;;;;;;4985998;28;20424;-86
2023/04/11 11:23:57;;;;;;;10.65;1.70;;;8.80;99.90;;;;;;4977801;28;20396;-85
2023/04/11 11:26:35;;;;;;;4.60;0.85;;;6.30;99.90;;;;;;5003147;28;20073;-86
2023/04/11 11:29:01;;;;;;;6.65;1.35;;;8.80;99.90;;;;;;4993354;28;20050;-85
2023/04/11 11:31:44;;;;;;;6.85;0.68;;;6.50;99.90;;;;;;5010548;28;20060;-86
2023/04/11 11:34:10;;;;;;;7.45;1.27;;;6.50;99.90;;;;;;4994272;28;20073;-86
2023/04/11 11:36:45;;;;;;;7.72;1.02;;;6.70;99.90;;;;;;4992721;28;20065;-88
2023/04/11 11:39:12;;;;;;;5.75;0.82;;;6.50;99.90;;;;;;4978347;28;20050;-87
2023/04/11 11:41:39;;;;;;;7.10;1.05;;;8.60;99.90;;;;;;4969866;28;20046;-86
2023/04/11 11:44:05;;;;;;;9.32;1.30;;;6.70;99.90;;;;;;4977739;28;20111;-87
2023/04/11 11:46:34;;;;;;;8.98;1.20;;;9.10;99.90;;;;;;4959585;28;20042;-86
2023/04/11 11:49:05;;;;;;;8.23;1.67;;;9.20;99.90;;;;;;4994438;28;20401;-86
2023/04/11 11:51:46;;;;;;;5.75;1.25;;;9.00;99.90;;;;;;4968699;28;20049;-86
2023/04/11 11:54:12;;;;;;;17.17;2.25;;;6.90;99.90;;;;;;4976416;28;20512;-86
2023/04/11 11:56:39;;;;;;;12.95;1.48;;;8.40;99.90;;;;;;4992498;28;20053;-86
2023/04/11 11:59:06;;;;;;;5.57;1.30;;;;;;;;;;4977828;28;20092;-86
2023/04/11 12:01:36;;;;;;;16.70;2.10;;;7.50;99.90;;;;;;4976392;28;20046;-87
2023/04/11 12:04:05;;;;;;;17.63;1.10;;;10.20;99.90;;;;;;4989379;28;20059;-85
2023/04/11 12:06:32;;;;;;;9.32;1.70;;;8.10;99.90;;;;;;4992450;28;20081;-86
2023/04/11 12:09:08;;;;;;;14.32;3.28;;;11.00;99.90;;;;;;4993076;28;20095;-86
2023/04/11 12:11:38;;;;;;;8.88;1.90;;;8.40;99.90;;;;;;4983006;28;20086;-86
2023/04/11 12:14:04;;;;;;;11.27;2.88;;;11.70;99.90;;;;;;4990482;28;20060;-86
2023/04/11 12:16:30;;;;;;;17.67;2.33;;;10.30;99.90;;;;;;4975196;28;20045;-86
2023/04/11 12:19:01;;;;;;;12.00;2.13;;;11.60;99.90;;;;;;4993289;28;20056;-87
2023/04/11 12:21:28;;;;;;;11.27;1.67;;;;;;;;;;4979606;28;20089;-88
2023/04/11 12:23:57;;;;;;;9.90;1.45;;;9.10;99.90;;;;;;4964716;28;20046;-89
2023/04/11 12:26:58;;;;;;;10.38;2.63;;;11.90;99.90;;;;;;4988529;28;20461;-88
2023/04/11 13:21:05;;;;;;;9.75;1.70;;;10.40;99.90;;;;;;4991469;28;20162;-82
2023/04/11 13:23:34;;;;;;;7.40;1.13;;;10.60;99.90;;;;;;4971609;28;20049;-89
2023/04/11 13:41:53;;;;;;;9.85;1.55;;;9.20;99.90;;;;;;4953752;29;20099;-88
2023/04/11 14:59:10;;;;;;;7.15;1.25;;;10.80;99.90;;;;;;4984898;28;20133;-87
2023/04/11 15:17:02;;;;;;;10.93;2.85;;;10.50;99.90;;;;;;4989843;28;20040;-84
2023/04/11 15:20:32;;;;;;;7.50;1.30;;;10.60;99.90;;;;;;4904353;29;20051;-84
2023/04/11 15:22:59;;;;;;;4.43;1.00;;;10.50;99.90;;;;;;4912702;29;20051;-86
2023/04/11 15:25:25;;;;;;;7.32;1.20;;;10.50;99.90;;;;;;4945004;29;20063;-85
2023/04/11 15:27:50;;;;;;;9.63;1.15;;;10.50;99.90;;;;;;4928687;29;20491;-87
2023/04/11 15:30:16;;;;;;;7.22;1.25;;;12.60;99.90;;;;;;4945603;29;20051;-84
2023/04/11 15:32:42;;;;;;;5.78;0.85;;;10.30;99.90;;;;;;4926817;29;20416;-84
2023/04/11 15:35:09;;;;;;;6.65;1.73;;;10.20;99.90;;;;;;4927093;29;20055;-85
2023/04/11 15:37:35;;;;;;;7.55;1.33;;;11.90;99.90;;;;;;4925355;29;20553;-86
2023/04/11 15:40:04;;;;;;;7.75;1.30;;;10.20;99.90;;;;;;4940063;29;20052;-87
2023/04/11 15:42:32;;;;;;;6.97;1.13;;;10.30;99.90;;;;;;4913481;29;20094;-86
2023/04/11 15:44:58;;;;;;;8.82;1.10;;;12.60;99.90;;;;;;4929472;29;20061;-85
2023/04/11 15:47:24;;;;;;;9.43;1.90;;;10.40;99.90;;;;;;4926692;29;20142;-84
2023/04/11 15:49:53;;;;;;;8.85;1.50;;;10.50;99.90;;;;;;4930084;28;20481;-83
2023/04/11 15:52:20;;;;;;;5.53;0.93;;;12.40;99.90;;;;;;4961905;28;20053;-84
2023/04/11 15:54:46;;;;;;;6.93;1.70;;;10.50;99.90;;;;;;4977955;28;20057;-85
2023/04/11 15:57:13;;;;;;;5.90;1.30;;;10.60;99.90;;;;;;4977142;28;20057;-85
2023/04/11 15:59:40;;;;;;;5.53;1.10;;;11.40;99.90;;;;;;4978535;28;20061;-85
2023/04/11 16:02:06;;;;;;;10.57;0.95;;;10.60;99.90;;;;;;4994439;28;20050;-84
2023/04/11 16:04:37;;;;;;;11.05;3.17;;;10.20;99.90;;;;;;4992663;28;20149;-85
2023/04/11 16:07:08;;;;;;;6.82;1.38;;;11.70;99.90;;;;;;4977843;28;20066;-85
2023/04/11 16:09:34;;;;;;;7.45;1.23;;;10.40;99.90;;;;;;4983341;28;20100;-84
2023/04/11 16:12:00;;;;;;;8.27;1.42;;;11.60;99.90;;;;;;4993604;28;20085;-86
2023/04/11 16:14:28;;;;;;;7.47;1.38;;;12.00;99.90;;;;;;4993226;28;20065;-86
2023/04/11 16:16:54;;;;;;;7.72;1.70;;;12.30;99.90;;;;;;4994346;28;20409;-85
2023/04/11 16:19:20;;;;;;;12.70;1.60;;;10.30;99.90;;;;;;5009462;28;20435;-85
2023/04/11 16:21:46;;;;;;;4.82;1.02;;;10.40;99.90;;;;;;4991822;28;20042;-83
2023/04/11 16:24:11;;;;;;;9.27;1.27;;;10.40;99.90;;;;;;5010301;28;20111;-80
2023/04/11 16:26:37;;;;;;;8.00;1.27;;;10.50;99.90;;;;;;4970357;28;20104;-84
2023/04/11 16:29:02;;;;;;;11.70;2.63;;;11.10;99.90;;;;;;4987286;28;20182;-85
2023/04/11 16:31:30;;;;;;;9.27;1.50;;;10.50;99.90;;;;;;5008965;28;20053;-86
2023/04/11 16:33:56;;;;;;;7.63;1.35;;;12.20;99.90;;;;;;4287201;28;10000702;-83
2023/04/11 16:36:22;;;;;;;5.75;1.52;;;11.50;99.90;;;;;;4995252;28;20103;-84
2023/04/11 16:38:48;;;;;;;7.18;1.40;;;12.70;99.90;;;;;;4979000;28;20050;-83
2023/04/11 16:41:17;;;;;;;10.85;1.67;;;10.50;99.90;;;;;;4945899;28;20132;-83
2023/04/11 16:43:43;;;;;;;7.63;1.55;;;12.30;99.90;;;;;;5009038;28;20048;-89
2023/04/11 16:46:14;;;;;;;5.25;1.15;;;12.80;99.90;;;;;;4974728;28;20417;-85
2023/04/11 16:48:43;;;;;;;7.68;1.38;;;12.70;99.90;;;;;;4990224;28;20080;-86
2023/04/11 16:51:12;;;;;;;6.13;1.63;;;10.50;99.90;;;;;;4965821;28;20050;-82
2023/04/11 16:53:38;;;;;;;8.35;1.20;;;10.50;99.90;;;;;;4973814;28;20057;-83
2023/04/11 16:56:05;;;;;;;6.85;1.13;;;10.40;99.90;;;;;;4992306;28;20115;-84
2023/04/11 16:58:31;;;;;;;8.15;1.27;;;10.50;99.90;;;;;;5006910;28;20082;-84
2023/04/11 17:00:58;;;;;;;2.75;0.70;;;10.60;99.90;;;;;;5007933;28;20090;-86
2023/04/11 17:03:24;;;;;;;11.50;1.38;;;10.10;99.90;;;;;;5008583;28;20088;-84
2023/04/11 17:05:49;;;;;;;8.20;1.65;;;11.60;99.90;;;;;;5002814;28;20473;-83
2023/04/11 17:08:16;;;;;;;10.15;2.30;;;10.40;99.90;;;;;;4981744;28;20402;-85
2023/04/11 17:10:42;;;;;;;7.05;2.35;;;10.40;99.90;;;;;;5002564;28;20076;-85
2023/04/11 17:13:10;;;;;;;8.02;1.33;;;11.00;99.90;;;;;;4991379;28;20124;-83
2023/04/11 17:15:36;;;;;;;12.55;1.30;;;10.80;99.90;;;;;;4990689;28;20053;-85
2023/04/11 17:18:02;;;;;;;7.75;1.33;;;12.30;99.90;;;;;;5009680;28;20124;-84
2023/04/11 17:20:27;;;;;;;5.50;0.80;;;10.30;99.90;;;;;;4989069;28;20112;-86
2023/04/11 17:22:53;;;;;;;7.78;1.15;;;12.30;99.90;;;;;;5022333;28;20046;-86
2023/04/11 17:25:21;;;;;;;3.95;1.05;;;;;;;;;;5008554;28;20061;-87
2023/04/11 17:27:47;;;;;;;8.00;1.17;;;10.10;99.90;;;;;;5003962;28;20081;-86
2023/04/11 17:30:13;;;;;;;6.65;1.30;;;11.10;99.90;;;;;;5003279;28;20057;-86
2023/04/11 17:32:38;;;;;;;8.32;1.52;;;8.90;99.90;;;;;;5004892;28;20053;-88
2023/04/11 17:35:05;;;;;;;5.80;1.13;;;12.40;99.90;;;;;;4980312;28;20081;-83
2023/04/11 17:37:31;;;;;;;8.48;1.25;;;10.10;99.90;;;;;;5000051;28;20093;-85
2023/04/11 17:39:57;;;;;;;7.03;1.45;;;9.90;99.90;;;;;;5006611;28;20078;-86
2023/04/11 17:42:22;;;;;;;7.47;1.27;;;11.80;99.90;;;;;;4982105;28;20053;-86
2023/04/11 17:44:49;;;;;;;5.97;0.93;;;;;;;;;;4997920;28;20052;-84
2023/04/11 17:47:15;;;;;;;7.95;1.30;;;9.90;99.90;;;;;;5003740;28;20077;-87
2023/04/11 17:49:41;;;;;;;5.32;1.17;;;12.70;99.90;;;;;;5007027;28;20054;-86
2023/04/11 17:52:08;;;;;;;4.00;1.40;;;11.90;99.90;;;;;;5004834;28;20095;-84
2023/04/11 17:54:33;;;;;;;5.18;0.70;;;7.60;99.90;;;;;;5001404;28;20160;-84
2023/04/11 17:57:00;;;;;;;6.75;1.83;;;9.60;99.90;;;;;;5002468;28;20586;-86
2023/04/11 17:59:26;;;;;;;12.55;4.00;;;10.70;99.90;;;;;;5004776;28;20045;-90
2023/04/11 18:01:54;;;;;;;9.80;1.95;;;10.60;99.90;;;;;;5003189;28;20050;-83
2023/04/11 18:04:20;;;;;;;6.38;1.65;;;11.80;99.90;;;;;;5010073;28;20157;-82
2023/04/11 18:06:46;;;;;;;10.65;1.85;;;12.10;99.90;;;;;;5004460;28;20061;-82
2023/04/11 18:09:14;;;;;;;6.78;1.40;;;10.10;99.90;;;;;;5001594;28;20058;-84
2023/04/11 18:11:44;;;;;;;6.28;1.58;;;9.40;99.90;;;;;;5001101;28;20043;-84
2023/04/11 18:14:11;;;;;;;5.90;1.73;;;9.20;99.90;;;;;;5016187;28;20061;-83
2023/04/11 18:16:38;;;;;;;7.57;1.52;;;11.70;99.90;;;;;;5014526;28;20050;-86
2023/04/11 18:19:05;;;;;;;6.97;1.85;;;9.10;99.90;;;;;;4968739;28;20049;-81
2023/04/11 18:21:31;;;;;;;7.10;1.73;;;11.10;99.90;;;;;;4999407;28;20125;-84
2023/04/11 18:23:57;;;;;;;7.82;1.10;;;8.60;99.90;;;;;;4982658;28;20068;-83
2023/04/11 18:26:27;;;;;;;7.80;1.85;;;9.60;99.90;;;;;;4984387;28;20042;-83
2023/04/11 18:28:53;;;;;;;9.50;1.55;;;8.90;99.90;;;;;;4996612;28;20077;-84
2023/04/11 18:31:20;;;;;;;7.45;1.55;;;9.90;99.90;;;;;;4990455;28;20670;-83
2023/04/11 18:33:45;;;;;;;7.05;1.63;;;8.80;99.90;;;;;;5003373;28;20073;-82
2023/04/11 18:36:11;;;;;;;6.35;2.05;;;8.70;99.90;;;;;;5004122;28;20042;-82
2023/04/11 18:38:37;;;;;;;9.73;1.60;;;8.70;99.90;;;;;;5019780;28;20173;-84
2023/04/11 18:41:02;;;;;;;7.57;3.72;;;9.90;99.90;;;;;;4981810;28;20058;-82
2023/04/11 18:43:28;;;;;;;7.22;4.05;;;8.60;99.90;;;;;;4996369;28;20055;-85
2023/04/11 18:45:54;;;;;;;9.43;2.85;;;8.50;99.90;;;;;;4973297;28;20145;-77
2023/04/11 18:48:20;;;;;;;9.33;2.10;;;8.50;99.90;;;;;;4652209;28;10000183;-83
2023/04/11 18:50:56;;;;;;;6.00;2.38;;;8.40;99.90;;;;;;4988411;28;20084;-77
2023/04/11 18:53:23;;;;;;;7.40;2.17;;;8.30;99.90;;;;;;4991405;28;20053;-77
2023/04/11 18:55:48;;;;;;;9.73;2.28;;;8.90;99.90;;;;;;5009195;28;20043;-78
2023/04/11 18:58:14;;;;;;;5.93;1.70;;;8.50;99.90;;;;;;4987903;28;20053;-77
2023/04/11 19:00:41;;;;;;;9.35;2.25;;;8.10;99.90;;;;;;4988174;28;20050;-83
2023/04/11 19:03:13;;;;;;;9.40;2.05;;;10.10;99.90;;;;;;4989281;28;20038;-81
2023/04/11 19:05:41;;;;;;;7.18;2.50;;;9.40;99.90;;;;;;4986924;28;20595;-81
2023/04/11 19:08:06;;;;;;;9.10;4.05;;;8.40;99.90;;;;;;5006909;28;20497;-82
2023/04/11 19:10:33;;;;;;;9.00;4.00;;;9.90;99.90;;;;;;5007067;28;20042;-84
2023/04/11 19:12:59;;;;;;;8.68;3.22;;;8.00;99.90;;;;;;4991590;28;20131;-84
2023/04/11 19:15:26;;;;;;;9.50;3.17;;;8.40;99.90;;;;;;4991517;28;20050;-83
2023/04/11 19:17:53;;;;;;;11.90;3.15;;;7.80;99.90;;;;;;4976015;28;20054;-85
2023/04/11 19:20:25;;;;;;;8.63;1.38;;;9.10;99.90;;;;;;5013218;28;20631;-83
2023/04/11 19:22:51;;;;;;;9.38;1.52;;;7.70;99.90;;;;;;5013461;28;20401;-83
2023/04/11 19:25:17;;;;;;;11.75;1.83;;;8.40;99.90;;;;;;4995253;28;20045;-83
2023/04/11 19:27:43;;;;;;;8.93;2.15;;;7.60;99.90;;;;;;5009640;28;20112;-84
2023/04/11 19:30:12;;;;;;;7.28;2.42;;;9.90;99.90;;;;;;5011853;28;20671;-82
2023/04/11 19:32:47;;;;;;;12.70;4.85;;;7.60;99.90;;;;;;5012872;28;20505;-82
2023/04/11 19:35:13;;;;;;;9.43;4.43;;;7.50;99.90;;;;;;5010858;28;20050;-86
2023/04/11 19:37:41;;;;;;;9.05;3.00;;;7.50;99.90;;;;;;5011882;28;20089;-82
2023/04/11 19:40:14;;;;;;;8.40;1.90;;;7.80;99.90;;;;;;4995761;28;20108;-86
2023/04/11 19:42:50;;;;;;;9.77;2.03;;;7.30;99.90;;;;;;4990417;28;20053;-83
2023/04/11 19:45:24;;;;;;;8.98;2.33;;;7.30;99.90;;;;;;5010610;28;20508;-83
2023/04/11 19:47:50;;;;;;;7.95;2.13;;;7.50;99.90;;;;;;5011697;28;20046;-82
2023/04/11 19:50:16;;;;;;;10.15;2.83;;;9.90;99.90;;;;;;4994221;28;20626;-84
2023/04/11 19:52:42;;;;;;;11.05;4.28;;;7.20;99.90;;;;;;5010157;28;20054;-83
2023/04/11 19:55:10;;;;;;;10.75;2.35;;;7.20;99.90;;;;;;4978805;28;20057;-82
2023/04/11 19:57:39;;;;;;;9.02;1.63;;;7.00;99.90;;;;;;4993761;28;20057;-81
2023/04/11 20:00:14;;;;;;;5.57;1.35;;;7.10;99.90;;;;;;4964633;28;20079;-83
2023/04/11 20:02:49;;;;;;;6.03;1.45;;;7.10;99.90;;;;;;4977359;28;20069;-82
2023/04/11 20:05:18;;;;;;;7.30;1.23;;;7.10;99.90;;;;;;4978078;28;20062;-81
2023/04/11 20:07:46;;;;;;;7.90;1.25;;;7.10;99.90;;;;;;4978310;28;20077;-82
2023/04/11 20:10:13;;;;;;;14.38;1.80;;;7.10;99.90;;;;;;4995510;28;20046;-83
2023/04/11 20:12:39;;;;;;;3.80;1.67;;;7.00;99.90;;;;;;4994240;28;21024;-83
2023/04/11 20:15:06;;;;;;;4.93;1.80;;;8.30;99.90;;;;;;4978566;28;20054;-84
2023/04/11 20:17:35;;;;;;;5.53;1.25;;;6.80;99.90;;;;;;5010969;28;20046;-82
2023/04/11 20:20:05;;;;;;;7.13;1.42;;;7.00;99.90;;;;;;4979609;28;20049;-87
2023/04/11 20:22:31;;;;;;;7.57;1.67;;;6.80;99.90;;;;;;5012367;28;20042;-82
2023/04/11 20:25:00;;;;;;;13.75;5.85;;;6.90;99.90;;;;;;4994128;28;20046;-84
2023/04/11 20:27:29;;;;;;;15.02;5.38;;;6.90;99.90;;;;;;4977437;28;20041;-83
2023/04/11 20:29:57;;;;;;;13.73;6.30;;;8.50;99.90;;;;;;4978205;28;20038;-84
2023/04/11 20:32:23;;;;;;;7.20;4.13;;;6.70;99.90;;;;;;4949887;28;20573;-84
2023/04/11 20:34:50;;;;;;;7.35;2.95;;;6.80;99.90;;;;;;4958610;28;20141;-84
2023/04/11 20:37:21;;;;;;;4.40;1.65;;;6.70;99.90;;;;;;4977045;28;20095;-82
2023/04/11 20:39:50;;;;;;;8.00;1.73;;;6.70;99.90;;;;;;4994598;28;20080;-83
2023/04/11 20:42:19;;;;;;;10.50;2.05;;;8.30;99.90;;;;;;5011470;28;20421;-83
2023/04/11 20:44:52;;;;;;;6.75;1.73;;;9.00;99.90;;;;;;5011044;28;20061;-85
2023/04/11 20:47:27;;;;;;;6.78;1.90;;;6.70;99.90;;;;;;4991000;28;20501;-83
2023/04/11 20:50:02;;;;;;;6.35;1.58;;;6.60;99.90;;;;;;4960483;28;20050;-83
2023/04/11 20:52:34;;;;;;;4.97;1.65;;;6.60;99.90;;;;;;4954942;28;20072;-82
2023/04/11 20:55:24;;;;;;;6.63;1.58;;;6.40;99.90;;;;;;4950036;28;20046;-82
2023/04/11 20:57:51;;;;;;;8.57;1.80;;;6.60;99.90;;;;;;4975610;28;20064;-85
2023/04/11 21:00:27;;;;;;;13.00;2.03;;;4.10;99.90;;;;;;4953506;28;20056;-85
2023/04/11 21:02:53;;;;;;;7.28;1.98;;;8.90;99.90;;;;;;4943886;28;20410;-82
2023/04/11 21:05:24;;;;;;;4.35;1.27;;;9.20;99.90;;;;;;4950790;28;20063;-82
2023/04/11 21:07:53;;;;;;;5.22;1.92;;;6.50;99.90;;;;;;4991335;28;20046;-82
2023/04/11 21:10:22;;;;;;;16.40;4.55;;;6.50;99.90;;;;;;4973836;28;20069;-84
2023/04/11 21:12:59;;;;;;;11.70;3.75;;;6.50;99.90;;;;;;4991838;28;20090;-85
2023/04/11 21:15:25;;;;;;;7.00;1.75;;;6.50;99.90;;;;;;4943160;28;20042;-84
2023/04/11 21:17:56;;;;;;;11.40;1.50;;;;;;;;;;4992867;28;20588;-87
2023/04/11 21:20:22;;;;;;;9.73;1.70;;;6.50;99.90;;;;;;4958551;28;20050;-87
2023/04/11 21:22:52;;;;;;;6.82;1.90;;;6.80;99.90;;;;;;4960299;28;20125;-86
2023/04/11 21:25:21;;;;;;;9.85;1.45;;;8.20;99.90;;;;;;4946866;28;20053;-83
2023/04/11 21:27:55;;;;;;;5.55;1.48;;;8.80;99.90;;;;;;4960065;28;20442;-85
2023/04/11 21:30:25;;;;;;;7.65;1.92;;;8.70;99.90;;;;;;4976093;28;20058;-83
2023/04/11 21:32:51;;;;;;;11.90;1.52;;;6.40;99.90;;;;;;4959389;28;20049;-83
2023/04/11 21:35:22;;;;;;;11.13;1.60;;;6.40;99.90;;;;;;4958469;28;20050;-85
2023/04/11 21:37:48;;;;;;;8.93;1.52;;;6.50;99.90;;;;;;4967505;28;20071;-84
2023/04/11 21:40:17;;;;;;;11.48;1.70;;;6.40;99.90;;;;;;4975867;28;20546;-83
2023/04/11 21:42:43;;;;;;;9.55;1.55;;;6.40;99.90;;;;;;4958300;28;20042;-84
2023/04/11 21:45:08;;;;;;;7.95;1.40;;;6.30;99.90;;;;;;4958410;28;20399;-83
2023/04/11 21:47:35;;;;;;;6.22;1.55;;;6.50;99.90;;;;;;4966418;28;20062;-84
2023/04/11 21:50:08;;;;;;;8.90;1.40;;;8.80;99.90;;;;;;4974040;28;20101;-86
2023/04/11 21:52:53;;;;;;;9.07;1.27;;;6.50;99.90;;;;;;4984167;28;20069;-84
2023/04/11 21:55:19;;;;;;;5.53;0.85;;;6.40;99.90;;;;;;5010583;28;20111;-84
2023/04/11 21:57:45;;;;;;;10.10;2.05;;;6.50;99.90;;;;;;4978242;28;20057;-83
2023/04/11 22:00:26;;;;;;;6.90;1.50;;;9.00;99.90;;;;;;4981089;28;20049;-83
2023/04/11 22:02:53;;;;;;;5.45;1.58;;;9.00;99.90;;;;;;4995888;28;20149;-82
2023/04/11 22:05:25;;;;;;;14.25;2.50;;;8.30;99.90;;;;;;4981960;28;20081;-82
2023/04/11 22:08:18;;;;;;;12.25;1.42;;;6.90;99.90;;;;;;5012162;28;20116;-84
2023/04/11 22:10:44;;;;;;;9.50;2.00;;;7.40;99.90;;;;;;4957252;28;20050;-85
2023/04/11 22:13:20;;;;;;;7.82;1.73;;;9.10;99.90;;;;;;4961091;28;20053;-83
2023/04/11 22:16:03;;;;;;;7.82;1.65;;;6.70;99.90;;;;;;4973262;28;20050;-83
2023/04/11 22:18:46;;;;;;;9.48;1.98;;;6.70;99.90;;;;;;5002681;28;20132;-83
2023/04/11 22:21:19;;;;;;;8.70;2.20;;;6.60;99.90;;;;;;4996415;28;20133;-82
2023/04/11 22:23:53;;;;;;;7.47;2.05;;;6.70;99.90;;;;;;4962133;28;20060;-84
2023/04/11 22:26:47;;;;;;;7.38;1.58;;;6.70;99.90;;;;;;4994792;28;20050;-82
2023/04/11 22:29:29;;;;;;;10.23;1.75;;;4.70;99.90;;;;;;5006146;28;20108;-82
2023/04/11 22:31:59;;;;;;;9.02;2.25;;;6.60;99.90;;;;;;4993252;28;20050;-83
2023/04/11 22:34:25;;;;;;;4.78;1.50;;;7.90;99.90;;;;;;4977386;28;20046;-84
2023/04/11 22:36:56;;;;;;;11.88;2.53;;;7.00;99.90;;;;;;4963082;28;20053;-86
2023/04/11 22:39:23;;;;;;;9.57;2.03;;;;;;;;;;4992460;28;20505;-82
2023/04/11 22:41:51;;;;;;;13.98;2.13;;;6.80;99.90;;;;;;4978832;28;20038;-83
2023/04/11 22:44:18;;;;;;;14.77;2.53;;;7.80;99.90;;;;;;4994453;28;20058;-83
2023/04/11 22:46:59;;;;;;;10.20;2.67;;;6.80;99.90;;;;;;4994321;28;20072;-83
2023/04/11 22:49:25;;;;;;;7.90;1.70;;;6.90;99.90;;;;;;4976471;28;20050;-85
2023/04/11 22:51:58;;;;;;;6.22;1.45;;;6.90;99.90;;;;;;4997548;28;20129;-83
2023/04/11 22:54:28;;;;;;;6.03;1.80;;;7.30;99.90;;;;;;4997155;28;20412;-83
2023/04/11 22:56:56;;;;;;;10.40;2.00;;;6.90;99.90;;;;;;5013936;28;20046;-82
2023/04/11 22:59:23;;;;;;;7.43;1.75;;;9.30;99.90;;;;;;4981454;28;20058;-83
2023/04/11 23:01:50;;;;;;;5.07;1.90;;;;;;;;;;4998029;28;20045;-84
2023/04/11 23:04:16;;;;;;;7.68;1.60;;;7.00;99.90;;;;;;4997158;28;20128;-83
2023/04/11 23:06:42;;;;;;;12.45;1.73;;;6.80;99.90;;;;;;4995839;28;20050;-83
2023/04/11 23:09:13;;;;;;;9.23;1.83;;;6.40;99.90;;;;;;4981019;28;20056;-83
2023/04/11 23:11:40;;;;;;;8.10;1.48;;;9.00;99.90;;;;;;4996015;28;20062;-83
2023/04/11 23:14:07;;;;;;;9.85;1.70;;;7.00;99.90;;;;;;4979702;28;20054;-82
2023/04/11 23:16:36;;;;;;;12.10;1.88;;;7.00;99.90;;;;;;5005270;28;20046;-84
2023/04/11 23:19:02;;;;;;;10.70;1.48;;;7.80;99.90;;;;;;4996978;28;20416;-84
2023/04/11 23:21:28;;;;;;;9.65;1.88;;;7.00;99.90;;;;;;4997565;28;20053;-81
2023/04/11 23:23:57;;;;;;;4.68;1.67;;;7.00;99.90;;;;;;4997567;28;20125;-81
2023/04/11 23:26:23;;;;;;;9.23;1.45;;;;;;;;;;4996336;28;20049;-84
2023/04/11 23:28:51;;;;;;;6.90;2.17;;;7.00;99.90;;;;;;5015247;28;20049;-81
2023/04/11 23:31:17;;;;;;;11.23;1.88;;;9.80;99.90;;;;;;4981595;28;20050;-83
2023/04/11 23:33:43;;;;;;;8.32;1.40;;;7.40;99.90;;;;;;5011874;28;20046;-82
2023/04/11 23:36:10;;;;;;;11.80;2.03;;;9.70;99.90;;;;;;4996910;28;20061;-83
2023/04/11 23:38:36;;;;;;;9.20;1.83;;;7.10;99.90;;;;;;4987896;28;20132;-84
2023/04/11 23:41:05;;;;;;;8.10;1.55;;;7.10;99.90;;;;;;4996069;28;20038;-82
2023/04/11 23:43:31;;;;;;;6.82;1.52;;;7.10;99.90;;;;;;5011736;28;20056;-81
2023/04/11 23:45:57;;;;;;;7.50;1.65;;;5.10;99.90;;;;;;4995573;28;20543;-83
2023/04/11 23:48:23;;;;;;;7.88;1.80;;;7.10;99.90;;;;;;5011709;28;20054;-86
2023/04/11 23:50:49;;;;;;;10.27;2.20;;;8.80;99.90;;;;;;5011872;28;20087;-85
2023/04/11 23:53:15;;;;;;;10.63;1.67;;;9.10;99.90;;;;;;4994438;28;20053;-82
2023/04/11 23:55:42;;;;;;;12.52;2.65;;;7.10;99.90;;;;;;4974026;28;20061;-84
2023/04/11 23:58:07;;;;;;;9.02;2.55;;;7.00;99.90;;;;;;5011638;28;20042;-81
